Time;durP1;ratioP1;P1;durP2;ratioP2;P2;SDS_P1;SDS_P2;PMS_P1;PMS_P2;Temp;Humidity;BMP_temperature;BMP_pressure;BME280_temperature;BME280_humidity;BME280_pressure;Samples;Min_cycle;Max_cycle;Signal;HPM_P1;HPM_P2
2022/06/29 00:00:22;;;;;;;0.43;0.20;;;13.10;99.90;;;;;;5087897;28;20051;-86
2022/06/29 00:02:48;;;;;;;0.50;0.47;;;13.20;99.90;;;;;;5088891;28;20051;-85
2022/06/29 00:05:18;;;;;;;0.30;0.30;;;13.20;99.90;;;;;;5089770;28;20108;-86
2022/06/29 00:07:44;;;;;;;0.30;0.30;;;13.00;99.90;;;;;;5107016;28;20108;-86
2022/06/29 00:10:12;;;;;;;0.95;0.75;;;13.20;99.90;;;;;;5107553;28;20055;-86
2022/06/29 00:12:39;;;;;;;1.45;0.82;;;12.90;99.90;;;;;;5108040;28;20371;-86
2022/06/29 00:15:06;;;;;;;0.57;0.57;;;13.00;99.90;;;;;;5110388;28;20043;-85
2022/06/29 00:17:32;;;;;;;0.70;0.35;;;13.00;99.90;;;;;;5091151;28;20130;-86
2022/06/29 00:20:00;;;;;;;0.28;0.28;;;12.90;99.90;;;;;;5091254;28;20087;-85
2022/06/29 00:22:27;;;;;;;2.10;1.33;;;13.20;99.90;;;;;;5107403;28;20039;-85
2022/06/29 00:24:53;;;;;;;0.00;0.00;;;12.90;99.90;;;;;;5096133;28;20077;-85
2022/06/29 00:27:19;;;;;;;0.10;0.10;;;13.30;99.90;;;;;;5103731;28;20027;-84
2022/06/29 00:29:45;;;;;;;0.17;0.17;;;12.70;99.90;;;;;;5121467;28;20031;-85
2022/06/29 00:32:11;;;;;;;0.47;0.47;;;12.70;99.90;;;;;;5121662;27;20031;-85
2022/06/29 00:34:37;;;;;;;0.10;0.10;;;12.80;99.90;;;;;;5104652;28;20030;-85
2022/06/29 00:37:03;;;;;;;0.32;0.20;;;13.10;99.90;;;;;;5104589;27;20058;-85
2022/06/29 00:39:29;;;;;;;0.50;0.50;;;12.50;99.90;;;;;;5102280;28;20055;-85
2022/06/29 00:41:55;;;;;;;1.20;0.88;;;13.20;99.90;;;;;;5108385;28;20043;-86
2022/06/29 00:44:21;;;;;;;1.98;0.40;;;12.50;99.90;;;;;;5090881;28;20047;-86
2022/06/29 00:46:49;;;;;;;0.73;0.55;;;13.40;99.90;;;;;;5089064;28;20054;-86
2022/06/29 00:49:17;;;;;;;2.85;1.33;;;13.10;99.90;;;;;;5089535;28;20077;-86
2022/06/29 00:51:46;;;;;;;0.55;0.35;;;13.10;99.90;;;;;;5090889;28;20513;-86
2022/06/29 00:54:19;;;;;;;0.40;0.30;;;12.60;99.90;;;;;;5107430;28;20623;-86
2022/06/29 00:56:46;;;;;;;1.85;1.00;;;11.50;99.90;;;;;;5105662;28;20050;-86
2022/06/29 00:59:15;;;;;;;0.45;0.10;;;13.10;99.90;;;;;;5091939;28;20060;-86
2022/06/29 01:01:42;;;;;;;1.25;0.80;;;12.10;99.90;;;;;;5093477;28;20054;-86
2022/06/29 01:04:08;;;;;;;0.55;0.55;;;13.00;99.90;;;;;;5109052;28;20047;-86
2022/06/29 01:06:34;;;;;;;3.60;0.50;;;13.20;99.90;;;;;;5109308;28;20047;-86
2022/06/29 01:09:00;;;;;;;0.38;0.20;;;11.30;99.90;;;;;;5091699;28;20067;-86
2022/06/29 01:11:26;;;;;;;1.00;0.65;;;12.80;99.90;;;;;;5088361;28;20394;-86
2022/06/29 01:13:52;;;;;;;0.20;0.20;;;13.30;99.90;;;;;;5090753;28;20055;-85
2022/06/29 01:16:18;;;;;;;0.25;0.25;;;12.70;99.90;;;;;;5092553;28;20515;-86
2022/06/29 01:18:44;;;;;;;0.93;0.52;;;12.20;99.90;;;;;;5109381;28;20119;-86
2022/06/29 01:21:11;;;;;;;0.03;0.03;;;13.30;99.90;;;;;;5109266;28;20051;-86
2022/06/29 01:23:37;;;;;;;0.20;0.20;;;12.30;99.90;;;;;;5107615;28;20044;-86
2022/06/29 01:26:04;;;;;;;0.28;0.13;;;12.60;99.90;;;;;;5106716;28;20119;-86
2022/06/29 01:28:31;;;;;;;0.20;0.20;;;11.30;99.90;;;;;;5107331;28;20044;-86
2022/06/29 01:30:57;;;;;;;0.17;0.15;;;12.70;99.90;;;;;;5108104;28;20054;-86
2022/06/29 01:33:23;;;;;;;1.33;0.63;;;13.40;99.90;;;;;;5108362;28;20051;-87
2022/06/29 01:35:50;;;;;;;0.68;0.45;;;13.20;99.90;;;;;;5091640;28;20157;-87
2022/06/29 01:38:18;;;;;;;0.47;0.40;;;12.40;99.90;;;;;;5090759;28;20134;-87
2022/06/29 01:40:43;;;;;;;0.47;0.25;;;12.40;99.90;;;;;;5112014;28;20035;-87
2022/06/29 01:43:09;;;;;;;0.00;0.00;;;12.70;99.90;;;;;;5095968;28;20047;-87
2022/06/29 01:45:35;;;;;;;0.20;0.20;;;13.50;99.90;;;;;;5096021;28;20096;-87
2022/06/29 01:48:01;;;;;;;0.82;0.60;;;13.50;99.90;;;;;;5094329;28;20067;-87
2022/06/29 01:50:27;;;;;;;0.47;0.47;;;13.40;99.90;;;;;;5094006;28;20054;-87
2022/06/29 01:52:53;;;;;;;0.28;0.15;;;13.50;99.90;;;;;;5110423;28;20050;-87
2022/06/29 01:55:19;;;;;;;0.00;0.00;;;12.50;99.90;;;;;;5111805;28;20067;-87
2022/06/29 01:57:44;;;;;;;0.32;0.32;;;12.50;99.90;;;;;;5165331;22;20056;-71
2022/06/29 02:00:11;;;;;;;0.32;0.25;;;12.50;99.90;;;;;;5066803;28;20048;-72
2022/06/29 02:02:37;;;;;;;0.20;0.17;;;12.60;99.90;;;;;;5071779;28;20047;-71
2022/06/29 02:05:03;;;;;;;0.43;0.43;;;12.60;99.90;;;;;;5074485;28;20048;-71
2022/06/29 02:07:29;;;;;;;0.57;0.50;;;12.80;99.90;;;;;;5083744;28;20065;-71
2022/06/29 02:09:54;;;;;;;0.25;0.22;;;12.80;99.90;;;;;;5096425;28;20044;-71
2022/06/29 02:12:20;;;;;;;0.22;0.22;;;12.80;99.90;;;;;;5095911;28;20036;-72
2022/06/29 02:14:46;;;;;;;0.30;0.20;;;12.90;99.90;;;;;;5084490;28;20482;-71
2022/06/29 02:17:11;;;;;;;0.10;0.10;;;13.00;99.90;;;;;;5079429;28;20122;-72
2022/06/29 02:19:37;;;;;;;0.30;0.30;;;13.00;99.90;;;;;;5096388;28;20131;-72
2022/06/29 02:22:03;;;;;;;0.43;0.43;;;13.10;99.90;;;;;;5096132;28;20044;-72
2022/06/29 02:24:28;;;;;;;0.30;0.30;;;13.10;99.90;;;;;;5096230;28;20405;-72
2022/06/29 02:26:54;;;;;;;0.70;0.70;;;13.20;99.90;;;;;;5095492;28;20048;-72
2022/06/29 02:29:19;;;;;;;0.17;0.17;;;13.20;99.90;;;;;;5093106;28;20084;-72
2022/06/29 02:34:44;;;;;;;0.45;0.30;;;13.40;99.90;;;;;;5075273;28;20087;-71
2022/06/29 02:37:16;;;;;;;0.60;0.45;;;13.40;99.90;;;;;;5081495;28;20046;-70
2022/06/29 02:39:43;;;;;;;1.30;1.10;;;13.40;99.90;;;;;;5095579;28;20429;-71
2022/06/29 02:42:12;;;;;;;0.57;0.57;;;13.50;99.90;;;;;;5095767;28;20036;-72
2022/06/29 02:44:38;;;;;;;2.38;1.08;;;13.40;99.90;;;;;;5095655;28;20036;-71
2022/06/29 02:47:08;;;;;;;0.57;0.47;;;13.40;99.90;;;;;;5088484;28;20360;-71
2022/06/29 02:49:34;;;;;;;1.58;0.93;;;13.40;99.90;;;;;;5094228;28;20482;-72
2022/06/29 02:52:00;;;;;;;1.25;0.93;;;13.50;99.90;;;;;;5094947;28;20075;-72
2022/06/29 02:54:26;;;;;;;1.75;1.20;;;13.40;99.90;;;;;;5095205;28;20040;-71
2022/06/29 02:56:53;;;;;;;0.50;0.43;;;13.40;99.90;;;;;;5094774;28;20084;-71
2022/06/29 02:59:20;;;;;;;0.77;0.68;;;13.40;99.90;;;;;;5077378;28;20097;-72
2022/06/29 03:01:46;;;;;;;1.02;0.88;;;13.40;99.90;;;;;;5095465;28;20043;-72
2022/06/29 03:04:12;;;;;;;0.82;0.80;;;13.50;99.90;;;;;;5094792;28;20482;-71
2022/06/29 03:06:38;;;;;;;4.50;1.70;;;13.50;99.90;;;;;;5086224;28;20040;-71
2022/06/29 03:09:04;;;;;;;0.65;0.57;;;13.50;99.90;;;;;;5094686;28;20508;-72
2022/06/29 03:11:29;;;;;;;0.90;0.65;;;13.60;99.90;;;;;;5094074;28;20123;-72
2022/06/29 03:13:55;;;;;;;0.88;0.68;;;13.50;99.90;;;;;;5094960;28;20044;-72
2022/06/29 03:16:20;;;;;;;0.80;0.63;;;13.40;99.90;;;;;;5094799;28;20502;-72
2022/06/29 03:18:46;;;;;;;0.88;0.85;;;13.30;99.90;;;;;;5094898;28;20401;-72
2022/06/29 03:21:12;;;;;;;0.65;0.55;;;13.30;99.90;;;;;;5094142;28;20456;-71
2022/06/29 03:23:38;;;;;;;0.30;0.30;;;13.30;99.90;;;;;;5075649;28;20036;-71
2022/06/29 03:26:03;;;;;;;1.02;0.95;;;13.20;99.90;;;;;;5093684;28;20446;-72
2022/06/29 03:28:29;;;;;;;1.23;0.40;;;13.20;99.90;;;;;;5093738;28;20044;-72
2022/06/29 03:30:55;;;;;;;0.17;0.13;;;13.20;99.90;;;;;;5093899;28;20419;-72
2022/06/29 03:33:21;;;;;;;0.35;0.35;;;13.20;99.90;;;;;;5093401;28;20079;-72
2022/06/29 03:35:47;;;;;;;0.38;0.38;;;13.20;99.90;;;;;;5093720;28;20040;-71
2022/06/29 03:38:13;;;;;;;0.35;0.35;;;13.20;99.90;;;;;;5091876;28;20089;-71
2022/06/29 03:40:38;;;;;;;0.15;0.15;;;13.20;99.90;;;;;;5093601;28;20090;-72
2022/06/29 03:43:04;;;;;;;0.80;0.80;;;13.20;99.90;;;;;;5093253;28;20036;-72
2022/06/29 03:45:30;;;;;;;2.17;0.47;;;13.30;99.90;;;;;;5092828;28;20604;-72
2022/06/29 03:47:56;;;;;;;0.73;0.68;;;13.40;99.90;;;;;;5087627;28;20119;-71
2022/06/29 03:50:21;;;;;;;2.08;1.10;;;13.40;99.90;;;;;;5093644;28;20055;-71
2022/06/29 03:52:49;;;;;;;0.50;0.45;;;13.40;99.90;;;;;;5075251;28;20055;-71
2022/06/29 03:55:14;;;;;;;2.65;0.65;;;14.40;99.90;;;;;;5090366;28;20048;-71
2022/06/29 03:57:40;;;;;;;0.70;0.70;;;13.50;99.90;;;;;;5090188;28;20048;-71
2022/06/29 04:00:06;;;;;;;0.45;0.45;;;13.50;99.90;;;;;;5093330;28;20070;-72
2022/06/29 04:02:32;;;;;;;0.52;0.40;;;13.60;99.90;;;;;;5091472;28;20063;-72
2022/06/29 04:04:58;;;;;;;2.00;0.70;;;13.50;99.90;;;;;;5074770;28;20048;-71
2022/06/29 04:07:24;;;;;;;2.35;1.45;;;13.50;99.90;;;;;;5090308;28;20122;-72
2022/06/29 04:09:49;;;;;;;0.98;0.77;;;13.60;99.90;;;;;;5093055;28;20119;-71
2022/06/29 04:12:15;;;;;;;1.92;0.60;;;13.50;99.90;;;;;;5092868;28;20601;-72
2022/06/29 04:14:41;;;;;;;0.38;0.38;;;13.60;99.90;;;;;;5092590;28;20101;-72
2022/06/29 04:17:06;;;;;;;0.68;0.50;;;13.60;99.90;;;;;;5090739;28;20046;-72
2022/06/29 04:19:32;;;;;;;2.22;0.98;;;13.60;99.90;;;;;;5093114;28;20437;-71
2022/06/29 04:21:58;;;;;;;1.00;0.73;;;13.70;99.90;;;;;;5092890;28;20044;-72
2022/06/29 04:24:23;;;;;;;1.80;0.93;;;13.70;99.90;;;;;;5092251;28;20051;-71
2022/06/29 04:26:49;;;;;;;0.22;0.22;;;13.80;99.90;;;;;;5090723;28;20047;-71
2022/06/29 04:29:14;;;;;;;3.85;1.25;;;13.80;99.90;;;;;;5092608;28;20040;-71
2022/06/29 04:31:41;;;;;;;2.33;0.95;;;13.90;99.90;;;;;;5092679;28;20036;-72
2022/06/29 04:34:06;;;;;;;1.35;0.95;;;14.00;99.90;;;;;;5092286;28;20461;-72
2022/06/29 04:36:32;;;;;;;1.10;0.68;;;14.10;99.90;;;;;;5090938;28;20067;-72
2022/06/29 04:38:58;;;;;;;3.50;1.10;;;14.20;99.90;;;;;;5092281;28;20079;-71
2022/06/29 04:41:24;;;;;;;2.63;1.17;;;14.30;99.90;;;;;;5092461;28;20075;-72
2022/06/29 04:43:50;;;;;;;11.50;2.25;;;14.40;99.90;;;;;;5092254;28;20051;-72
2022/06/29 04:46:19;;;;;;;0.73;0.73;;;14.50;99.90;;;;;;5086965;28;20036;-71
2022/06/29 04:48:50;;;;;;;1.70;1.27;;;14.70;99.90;;;;;;5092426;28;20043;-72
2022/06/29 04:51:16;;;;;;;0.25;0.25;;;14.60;99.90;;;;;;5092525;28;20383;-72
2022/06/29 04:53:44;;;;;;;0.25;0.25;;;14.60;99.90;;;;;;5090181;28;20127;-72
2022/06/29 04:56:10;;;;;;;0.85;0.65;;;14.70;99.90;;;;;;5086101;28;20048;-72
2022/06/29 04:58:36;;;;;;;0.70;0.70;;;14.70;99.90;;;;;;5088520;28;20048;-72
2022/06/29 05:01:01;;;;;;;1.92;0.88;;;14.80;99.90;;;;;;5089246;28;20507;-72
2022/06/29 05:03:27;;;;;;;1.27;1.10;;;14.80;99.90;;;;;;5088152;28;20072;-73
2022/06/29 05:05:53;;;;;;;2.03;0.95;;;14.90;99.90;;;;;;5088368;28;20053;-72
2022/06/29 05:08:18;;;;;;;0.17;0.17;;;15.00;99.90;;;;;;5083936;28;20036;-72
2022/06/29 05:10:44;;;;;;;1.20;1.10;;;15.00;99.90;;;;;;5088812;28;20189;-72
2022/06/29 05:13:10;;;;;;;1.17;0.88;;;15.10;99.90;;;;;;5088924;28;20054;-72
2022/06/29 05:15:39;;;;;;;0.77;0.47;;;15.10;99.90;;;;;;5093080;28;20494;-72
2022/06/29 05:18:06;;;;;;;0.13;0.13;;;15.20;99.90;;;;;;5089767;28;20040;-72
2022/06/29 05:20:32;;;;;;;0.85;0.28;;;15.20;99.90;;;;;;5095768;28;20058;-72
2022/06/29 05:22:57;;;;;;;1.13;0.82;;;15.30;99.90;;;;;;5095596;28;20435;-72
2022/06/29 05:25:23;;;;;;;0.63;0.63;;;15.60;99.90;;;;;;5077640;28;20078;-72
2022/06/29 05:27:49;;;;;;;0.52;0.45;;;15.60;99.90;;;;;;5096364;28;20382;-72
2022/06/29 05:30:15;;;;;;;1.38;0.98;;;15.70;99.90;;;;;;5096202;28;20131;-72
2022/06/29 05:32:43;;;;;;;0.77;0.55;;;16.00;99.90;;;;;;5095831;28;20040;-71
2022/06/29 05:35:10;;;;;;;0.82;0.68;;;16.60;99.90;;;;;;5096232;28;20040;-72
2022/06/29 05:37:36;;;;;;;0.20;0.20;;;16.60;99.90;;;;;;5095794;28;20113;-72
2022/06/29 05:40:03;;;;;;;0.43;0.43;;;16.50;99.90;;;;;;5096132;28;20048;-72
2022/06/29 05:42:28;;;;;;;0.55;0.55;;;16.60;99.90;;;;;;5096025;28;20036;-72
2022/06/29 05:44:54;;;;;;;2.03;1.10;;;16.90;99.90;;;;;;5095904;28;20174;-72
2022/06/29 05:47:20;;;;;;;0.32;0.32;;;17.40;99.90;;;;;;5095786;28;20040;-72
2022/06/29 05:49:45;;;;;;;0.20;0.20;;;18.00;99.90;;;;;;5095654;28;20047;-72
2022/06/29 05:52:11;;;;;;;2.20;1.10;;;18.40;99.90;;;;;;5095591;28;20133;-72
2022/06/29 05:54:37;;;;;;;0.60;0.50;;;18.20;99.90;;;;;;5095797;28;20486;-72
2022/06/29 05:57:04;;;;;;;0.38;0.38;;;18.90;99.90;;;;;;5095571;28;20052;-72
2022/06/29 05:59:29;;;;;;;0.50;0.40;;;19.50;99.90;;;;;;5095647;28;20127;-72
2022/06/29 06:01:55;;;;;;;1.00;0.88;;;19.40;99.90;;;;;;5077333;28;20127;-72
2022/06/29 06:04:21;;;;;;;0.30;0.30;;;20.10;99.90;;;;;;5077426;28;20079;-72
2022/06/29 06:06:46;;;;;;;0.50;0.50;;;20.30;99.90;;;;;;5077321;28;20047;-72
2022/06/29 06:09:12;;;;;;;0.77;0.55;;;20.60;99.90;;;;;;5076999;28;20520;-72
2022/06/29 06:11:38;;;;;;;0.70;0.63;;;20.40;99.90;;;;;;5095468;28;20040;-72
2022/06/29 06:14:03;;;;;;;0.32;0.32;;;20.80;99.90;;;;;;5095356;28;20477;-72
2022/06/29 06:16:29;;;;;;;0.10;0.10;;;21.10;99.90;;;;;;5095116;28;20051;-72
2022/06/29 06:18:55;;;;;;;0.75;0.40;;;21.70;99.90;;;;;;5095202;28;20047;-73
2022/06/29 06:21:21;;;;;;;0.15;0.15;;;22.60;99.90;;;;;;5076936;28;20051;-73
2022/06/29 06:23:47;;;;;;;0.70;0.25;;;23.20;96.30;;;;;;5095043;28;20059;-73
2022/06/29 06:26:13;;;;;;;0.77;0.50;;;22.50;95.60;;;;;;5094282;28;20040;-73
2022/06/29 06:28:39;;;;;;;0.13;0.13;;;22.70;96.00;;;;;;5095056;28;20097;-73
2022/06/29 06:31:07;;;;;;;0.65;0.65;;;22.90;83.90;;;;;;5094827;28;20490;-73
2022/06/29 06:33:33;;;;;;;0.17;0.17;;;22.50;94.50;;;;;;5094848;28;20036;-73
2022/06/29 06:35:58;;;;;;;0.30;0.20;;;23.10;82.20;;;;;;5094768;28;20441;-74
2022/06/29 06:38:24;;;;;;;0.85;0.45;;;23.10;79.10;;;;;;5094858;28;20051;-73
2022/06/29 06:43:34;;;;;;;0.05;0.05;;;23.80;62.90;;;;;;5094800;28;20490;-73
2022/06/29 06:45:59;;;;;;;1.98;0.57;;;23.60;70.40;;;;;;5094669;28;20044;-72
2022/06/29 06:48:25;;;;;;;0.10;0.10;;;23.70;60.50;;;;;;5076661;28;20036;-73
2022/06/29 06:50:51;;;;;;;0.15;0.15;;;24.40;57.00;;;;;;5094771;28;20044;-72
2022/06/29 06:53:16;;;;;;;0.03;0.03;;;24.20;50.90;;;;;;5094625;28;20043;-73
2022/06/29 06:55:42;;;;;;;0.03;0.03;;;25.00;46.10;;;;;;5094436;28;20052;-72
2022/06/29 06:58:07;;;;;;;0.75;0.47;;;25.30;60.00;;;;;;5094117;28;20070;-72
2022/06/29 07:00:33;;;;;;;0.75;0.47;;;25.30;39.30;;;;;;5094344;28;20048;-73
2022/06/29 07:02:59;;;;;;;0.55;0.43;;;26.00;32.60;;;;;;5094267;28;20087;-74
2022/06/29 07:05:25;;;;;;;0.05;0.05;;;26.10;18.30;;;;;;5094505;28;20421;-73
2022/06/29 07:07:51;;;;;;;4.75;0.35;;;26.40;23.80;;;;;;5094226;28;20055;-73
2022/06/29 07:10:16;;;;;;;1.13;0.65;;;26.80;13.20;;;;;;5094253;28;20119;-73
2022/06/29 07:12:42;;;;;;;0.70;0.52;;;26.20;10.00;;;;;;5094323;28;20500;-74
2022/06/29 07:15:08;;;;;;;1.25;0.55;;;26.10;10.90;;;;;;5094222;28;20040;-73
2022/06/29 07:17:33;;;;;;;0.25;0.25;;;25.80;11.30;;;;;;5093873;28;20040;-73
2022/06/29 07:19:59;;;;;;;0.57;0.22;;;26.30;8.40;;;;;;5094181;28;20094;-73
2022/06/29 07:22:24;;;;;;;0.20;0.20;;;26.40;5.50;;;;;;5088466;28;20046;-73
2022/06/29 07:24:50;;;;;;;0.00;0.00;;;26.60;8.60;;;;;;5093884;28;20459;-73
2022/06/29 07:27:16;;;;;;;0.25;0.17;;;26.10;2.20;;;;;;5094029;28;20115;-73
2022/06/29 07:29:42;;;;;;;0.20;0.20;;;26.70;4.80;;;;;;5093784;28;20102;-73
2022/06/29 07:32:07;;;;;;;0.88;0.85;;;26.40;4.00;;;;;;5093648;28;20123;-73
2022/06/29 07:34:33;;;;;;;0.47;0.30;;;25.90;1.00;;;;;;5093753;28;20047;-74
2022/06/29 07:36:59;;;;;;;0.13;0.10;;;25.20;4.40;;;;;;5093668;28;20043;-73
2022/06/29 07:39:25;;;;;;;0.93;0.50;;;26.10;5.80;;;;;;5092150;28;20048;-74
2022/06/29 07:41:50;;;;;;;0.00;0.00;;;26.40;8.80;;;;;;5090488;28;20044;-74
2022/06/29 07:44:16;;;;;;;9.25;0.85;;;27.20;1.00;;;;;;5090236;28;20044;-74
2022/06/29 07:46:41;;;;;;;0.10;0.10;;;26.60;1.00;;;;;;5090115;28;20130;-74
2022/06/29 07:49:07;;;;;;;2.83;1.23;;;27.20;1.80;;;;;;5090106;28;20048;-74
2022/06/29 07:51:34;;;;;;;0.20;0.20;;;26.90;1.00;;;;;;5089362;28;20052;-74
2022/06/29 07:54:00;;;;;;;0.20;0.10;;;26.60;1.00;;;;;;5087726;28;20494;-74
2022/06/29 07:56:25;;;;;;;0.20;0.20;;;25.90;2.50;;;;;;5069954;28;20040;-74
2022/06/29 07:58:51;;;;;;;0.32;0.25;;;27.20;2.60;;;;;;5069453;28;20060;-74
2022/06/29 08:01:16;;;;;;;0.08;0.08;;;26.50;1.00;;;;;;5069805;28;20097;-74
2022/06/29 08:03:42;;;;;;;0.00;0.00;;;26.80;1.00;;;;;;5069802;28;20192;-74
2022/06/29 08:06:08;;;;;;;0.30;0.22;;;27.00;1.00;;;;;;5069922;28;20090;-74
2022/06/29 08:08:33;;;;;;;0.00;0.00;;;26.90;1.00;;;;;;5070017;28;20041;-74
2022/06/29 08:10:59;;;;;;;0.00;0.00;;;26.90;1.00;;;;;;5083367;28;20040;-74
2022/06/29 08:13:24;;;;;;;0.52;0.40;;;26.90;1.00;;;;;;5090029;28;20098;-74
2022/06/29 08:15:50;;;;;;;0.45;0.35;;;27.50;1.00;;;;;;5089750;28;20137;-74
2022/06/29 08:18:16;;;;;;;0.20;0.15;;;27.80;1.00;;;;;;5089457;28;20059;-74
2022/06/29 08:20:43;;;;;;;0.00;0.00;;;27.40;1.00;;;;;;5090018;28;20499;-74
2022/06/29 08:23:09;;;;;;;0.17;0.17;;;28.30;1.00;;;;;;5090104;28;20079;-74
2022/06/29 08:25:35;;;;;;;2.28;0.20;;;27.60;1.00;;;;;;5089850;28;20091;-74
2022/06/29 08:28:05;;;;;;;0.10;0.10;;;28.20;1.00;;;;;;5089765;28;20510;-74
2022/06/29 08:30:31;;;;;;;0.00;0.00;;;28.80;1.00;;;;;;5089729;28;20059;-74
2022/06/29 08:32:57;;;;;;;0.10;0.10;;;28.30;1.00;;;;;;5089900;28;20040;-74
2022/06/29 08:35:22;;;;;;;0.10;0.05;;;27.70;1.00;;;;;;5089823;28;20125;-74
2022/06/29 08:37:48;;;;;;;0.35;0.35;;;27.30;1.00;;;;;;5089534;28;20103;-74
2022/06/29 08:40:16;;;;;;;0.10;0.10;;;26.90;1.00;;;;;;5089608;28;20050;-74
2022/06/29 08:42:44;;;;;;;0.17;0.10;;;26.70;1.00;;;;;;5089575;28;20039;-74
2022/06/29 08:45:11;;;;;;;0.20;0.17;;;26.40;1.00;;;;;;5089522;28;20169;-74
2022/06/29 08:47:37;;;;;;;0.20;0.20;;;26.10;1.00;;;;;;5089818;28;20040;-74
2022/06/29 08:50:08;;;;;;;0.00;0.00;;;26.50;1.00;;;;;;5089272;28;20036;-75
2022/06/29 08:52:38;;;;;;;0.73;0.60;;;27.40;1.00;;;;;;5089459;28;20044;-74
2022/06/29 08:55:05;;;;;;;0.43;0.30;;;28.00;1.00;;;;;;5089409;28;20119;-75
2022/06/29 08:57:34;;;;;;;0.20;0.20;;;29.30;1.00;;;;;;5089257;28;20064;-74
2022/06/29 09:00:00;;;;;;;0.55;0.35;;;30.40;1.00;;;;;;5089916;28;20407;-73
2022/06/29 09:02:25;;;;;;;0.30;0.28;;;29.80;1.00;;;;;;5089473;28;20052;-74
2022/06/29 09:04:53;;;;;;;0.10;0.10;;;30.00;1.00;;;;;;5089422;28;20127;-74
2022/06/29 09:07:19;;;;;;;0.20;0.20;;;31.20;1.00;;;;;;5089409;28;20106;-73
2022/06/29 09:10:08;;;;;;;0.13;0.13;;;30.80;1.00;;;;;;5089204;28;20048;-73
2022/06/29 09:12:34;;;;;;;0.00;0.00;;;29.30;1.00;;;;;;5089615;28;20500;-74
2022/06/29 09:15:02;;;;;;;0.15;0.08;;;29.40;1.00;;;;;;5089321;28;20083;-74
2022/06/29 09:17:31;;;;;;;0.17;0.17;;;29.50;1.00;;;;;;5089051;28;20575;-74
2022/06/29 09:19:56;;;;;;;0.40;0.30;;;29.00;1.00;;;;;;5071785;28;20056;-73
2022/06/29 09:22:22;;;;;;;0.73;0.40;;;28.60;1.00;;;;;;5092420;28;20044;-73
2022/06/29 09:24:48;;;;;;;0.00;0.00;;;28.50;1.00;;;;;;5092448;28;20174;-74
2022/06/29 09:27:14;;;;;;;0.22;0.20;;;28.20;1.00;;;;;;5092846;28;20047;-73
2022/06/29 09:29:41;;;;;;;0.13;0.13;;;28.50;1.00;;;;;;5092618;28;20088;-74
2022/06/29 09:32:13;;;;;;;0.28;0.20;;;28.80;1.00;;;;;;5092349;28;20046;-74
2022/06/29 09:34:44;;;;;;;0.65;0.20;;;28.60;1.00;;;;;;5074275;28;20048;-73
2022/06/29 09:37:15;;;;;;;0.00;0.00;;;28.90;1.00;;;;;;5092234;28;20054;-74
2022/06/29 09:39:46;;;;;;;0.32;0.28;;;29.50;1.00;;;;;;5092040;28;20482;-74
2022/06/29 09:42:17;;;;;;;0.10;0.10;;;30.20;1.00;;;;;;5092105;28;20486;-74
2022/06/29 09:44:44;;;;;;;0.20;0.15;;;31.10;1.00;;;;;;5092096;28;20040;-73
2022/06/29 09:47:19;;;;;;;0.40;0.38;;;30.70;1.00;;;;;;5091976;28;20047;-74
2022/06/29 09:49:51;;;;;;;0.30;0.20;;;29.50;1.00;;;;;;5091794;28;20072;-73
2022/06/29 09:52:17;;;;;;;0.10;0.10;;;29.50;1.00;;;;;;5092101;28;20115;-73
2022/06/29 09:54:44;;;;;;;0.35;0.35;;;29.00;1.00;;;;;;5092026;28;20048;-74
2022/06/29 09:57:12;;;;;;;0.10;0.10;;;29.50;1.00;;;;;;5091899;28;20118;-74
2022/06/29 10:02:45;;;;;;;1.60;0.60;;;28.70;1.00;;;;;;5095578;28;20052;-74
2022/06/29 10:05:14;;;;;;;0.22;0.10;;;28.40;1.00;;;;;;5095676;28;20032;-74
2022/06/29 10:07:45;;;;;;;0.00;0.00;;;28.10;1.00;;;;;;5095125;28;20040;-74
2022/06/29 10:10:13;;;;;;;0.57;0.50;;;28.70;1.00;;;;;;5077206;28;20552;-73
2022/06/29 10:15:56;;;;;;;0.10;0.10;;;28.50;1.00;;;;;;5095249;28;20090;-74
2022/06/29 10:18:50;;;;;;;0.20;0.20;;;27.90;1.00;;;;;;5095206;28;20036;-73
2022/06/29 10:21:22;;;;;;;0.28;0.13;;;27.80;1.00;;;;;;5095364;28;20465;-74
2022/06/29 10:23:56;;;;;;;0.80;0.20;;;28.30;1.00;;;;;;5095618;28;20040;-74
2022/06/29 10:26:37;;;;;;;0.55;0.40;;;29.00;1.00;;;;;;5077677;28;20174;-74
2022/06/29 10:29:05;;;;;;;0.10;0.10;;;29.40;1.00;;;;;;5095328;28;20040;-73
2022/06/29 10:31:59;;;;;;;0.25;0.20;;;29.70;1.00;;;;;;5095382;28;20044;-74
2022/06/29 10:34:31;;;;;;;0.10;0.10;;;30.20;1.00;;;;;;5077414;28;20055;-75
2022/06/29 10:37:02;;;;;;;0.03;0.03;;;29.80;1.00;;;;;;5095379;28;20090;-73
2022/06/29 10:39:49;;;;;;;0.57;0.35;;;30.00;1.00;;;;;;5095261;28;20040;-73
2022/06/29 10:45:13;;;;;;;0.30;0.30;;;30.00;1.00;;;;;;5095392;28;20052;-73
2022/06/29 10:47:39;;;;;;;0.03;0.03;;;29.10;1.00;;;;;;5095213;28;20086;-72
2022/06/29 10:50:26;;;;;;;0.20;0.20;;;29.30;1.00;;;;;;5095047;28;20051;-73
2022/06/29 10:52:56;;;;;;;0.10;0.10;;;29.10;1.00;;;;;;5095294;28;20040;-73
2022/06/29 10:55:24;;;;;;;1.45;0.45;;;29.00;1.00;;;;;;5095339;28;20119;-73
2022/06/29 10:57:50;;;;;;;0.20;0.20;;;29.30;1.00;;;;;;5076917;28;20052;-73
2022/06/29 11:00:19;;;;;;;0.00;0.00;;;29.70;1.00;;;;;;5094972;28;20048;-72
2022/06/29 11:02:45;;;;;;;0.17;0.15;;;30.00;1.00;;;;;;5095139;28;20119;-73
2022/06/29 11:05:11;;;;;;;0.10;0.10;;;30.00;1.00;;;;;;5095071;28;20532;-73
2022/06/29 11:13:12;;;;;;;0.63;0.30;;;31.10;1.00;;;;;;5094273;28;20056;-73
2022/06/29 11:15:56;;;;;;;0.03;0.03;;;30.50;1.00;;;;;;5094738;28;20486;-73
2022/06/29 11:18:30;;;;;;;1.15;0.63;;;30.40;1.00;;;;;;5094660;28;20036;-73
2022/06/29 11:21:02;;;;;;;0.70;0.50;;;31.60;1.00;;;;;;5094614;28;20055;-73
2022/06/29 11:23:35;;;;;;;0.28;0.17;;;31.00;1.00;;;;;;5094492;28;20490;-73
2022/06/29 11:26:05;;;;;;;1.25;0.47;;;30.90;1.00;;;;;;5094721;28;20046;-73
2022/06/29 11:28:33;;;;;;;0.73;0.20;;;31.50;1.00;;;;;;5094467;28;20094;-73
2022/06/29 11:31:06;;;;;;;1.00;0.22;;;31.20;1.00;;;;;;5094232;28;20379;-73
2022/06/29 11:33:39;;;;;;;0.47;0.20;;;30.10;1.00;;;;;;5091503;28;20040;-73
2022/06/29 11:36:10;;;;;;;0.10;0.10;;;29.70;1.00;;;;;;5087181;28;20351;-74
2022/06/29 11:38:46;;;;;;;0.00;0.00;;;29.70;1.00;;;;;;5089756;28;20099;-74
2022/06/29 11:41:14;;;;;;;0.20;0.20;;;29.60;1.00;;;;;;5089298;28;20106;-74
2022/06/29 11:51:57;;;;;;;0.10;0.10;;;31.80;1.00;;;;;;5069463;28;20052;-75
2022/06/29 11:54:35;;;;;;;0.30;0.10;;;31.70;1.00;;;;;;5084995;28;20054;-74
2022/06/29 11:57:04;;;;;;;0.10;0.10;;;32.40;1.00;;;;;;5087444;28;20051;-74
2022/06/29 11:59:32;;;;;;;0.10;0.08;;;32.20;1.00;;;;;;5088494;28;20052;-75
2022/06/29 12:01:59;;;;;;;0.30;0.22;;;30.50;1.00;;;;;;5088765;28;20040;-74
2022/06/29 12:04:30;;;;;;;0.80;0.40;;;30.30;1.00;;;;;;5087540;28;20048;-75
2022/06/29 12:07:17;;;;;;;0.20;0.20;;;30.10;1.00;;;;;;5088257;28;20055;-74
2022/06/29 12:09:45;;;;;;;0.30;0.15;;;28.80;1.00;;;;;;5088002;28;20044;-74
2022/06/29 12:12:12;;;;;;;0.22;0.15;;;29.00;1.00;;;;;;5088596;28;20113;-75
2022/06/29 12:14:39;;;;;;;0.43;0.38;;;29.30;1.00;;;;;;5088321;28;20097;-74
2022/06/29 12:17:06;;;;;;;0.57;0.35;;;29.80;1.00;;;;;;5088129;28;20834;-74
2022/06/29 12:19:32;;;;;;;0.10;0.10;;;30.40;1.00;;;;;;5088412;28;20054;-75
2022/06/29 12:21:57;;;;;;;0.32;0.32;;;30.10;1.00;;;;;;5078802;28;20040;-74
2022/06/29 12:24:25;;;;;;;0.20;0.13;;;30.70;1.00;;;;;;5067857;28;20124;-75
2022/06/29 12:26:50;;;;;;;0.05;0.05;;;30.80;1.00;;;;;;5069277;28;20044;-74
2022/06/29 12:29:16;;;;;;;0.10;0.10;;;31.30;1.00;;;;;;5069024;28;20040;-74
2022/06/29 12:31:43;;;;;;;0.15;0.15;;;31.70;1.00;;;;;;5069012;28;20091;-73
2022/06/29 12:34:13;;;;;;;0.25;0.25;;;31.80;1.00;;;;;;5050906;28;20056;-74
2022/06/29 12:36:39;;;;;;;0.73;0.50;;;32.40;1.00;;;;;;5069178;28;20431;-75
2022/06/29 12:39:06;;;;;;;0.65;0.40;;;33.10;1.00;;;;;;5071800;28;20056;-75
2022/06/29 12:41:32;;;;;;;0.30;0.30;;;33.80;1.00;;;;;;5071816;28;20456;-75
2022/06/29 12:43:59;;;;;;;1.88;0.82;;;33.10;1.00;;;;;;5071469;28;20043;-75
2022/06/29 12:46:27;;;;;;;0.47;0.30;;;32.70;1.00;;;;;;5072437;28;20123;-75
2022/06/29 12:48:54;;;;;;;0.20;0.20;;;33.30;1.00;;;;;;5071579;28;20518;-75
2022/06/29 12:51:19;;;;;;;0.15;0.10;;;32.70;1.00;;;;;;5072003;28;20234;-75
2022/06/29 12:53:45;;;;;;;5.18;1.17;;;33.40;1.00;;;;;;5072024;28;20079;-75
2022/06/29 12:56:10;;;;;;;0.10;0.10;;;32.10;1.00;;;;;;5072444;28;20044;-74
2022/06/29 12:58:36;;;;;;;0.32;0.30;;;30.60;1.00;;;;;;5071889;28;20136;-75
2022/06/29 13:01:02;;;;;;;0.10;0.10;;;31.30;1.00;;;;;;5071625;28;20040;-75
2022/06/29 13:03:27;;;;;;;0.32;0.28;;;31.00;1.00;;;;;;5071496;28;20040;-75
2022/06/29 13:05:53;;;;;;;0.90;0.40;;;32.50;1.00;;;;;;5071394;28;20040;-75
2022/06/29 13:08:18;;;;;;;1.17;0.73;;;32.40;1.00;;;;;;5071431;28;20558;-75
2022/06/29 13:10:45;;;;;;;0.03;0.03;;;31.40;1.00;;;;;;5071333;28;20133;-75
2022/06/29 13:13:10;;;;;;;1.02;0.52;;;31.00;1.00;;;;;;5071068;28;20037;-75
2022/06/29 13:15:36;;;;;;;0.32;0.32;;;31.00;1.00;;;;;;5071131;28;20549;-75
2022/06/29 13:18:05;;;;;;;0.35;0.30;;;31.60;1.00;;;;;;5071202;28;20384;-75